createdAt,value
2018-04-07T00:02:48.305Z,3.60
2018-04-07T00:06:50.837Z,3.47
2018-04-07T00:10:54.138Z,3.30
2018-04-07T00:14:56.690Z,3.70
2018-04-07T00:18:59.208Z,3.30
2018-04-07T00:23:02.487Z,3.40
2018-04-07T00:27:05.016Z,3.50
2018-04-07T00:31:07.540Z,3.33
2018-04-07T00:35:10.062Z,3.70
2018-04-07T00:39:13.345Z,3.70
2018-04-07T00:43:15.881Z,3.83
2018-04-07T00:47:18.383Z,3.10
2018-04-07T00:51:21.669Z,3.90
2018-04-07T00:55:24.208Z,3.63
2018-04-07T00:59:26.732Z,3.80
2018-04-07T01:03:29.253Z,3.83
2018-04-07T01:07:31.753Z,4.10
2018-04-07T01:11:34.286Z,3.50
2018-04-07T01:15:36.814Z,3.77
2018-04-07T01:19:39.349Z,3.70
2018-04-07T01:23:41.882Z,4.03
2018-04-07T01:27:44.384Z,4.17
2018-04-07T01:31:46.904Z,3.90
2018-04-07T01:35:49.421Z,4.10
2018-04-07T01:44:01.683Z,4.50
2018-04-07T01:48:04.180Z,4.13
2018-04-07T01:52:06.786Z,4.03
2018-04-07T01:56:10.077Z,4.50
2018-04-07T02:00:13.360Z,4.10
2018-04-07T02:04:15.889Z,3.63
2018-04-07T02:08:18.422Z,4.17
2018-04-07T02:12:20.954Z,4.70
2018-04-07T02:16:23.479Z,4.40
2018-04-07T02:20:26.005Z,4.03
2018-04-07T02:24:29.297Z,4.20
2018-04-07T02:28:31.803Z,4.67
2018-04-07T02:32:35.088Z,4.63
2018-04-07T02:36:38.391Z,4.70
2018-04-07T02:40:41.687Z,4.30
2018-04-07T02:44:44.223Z,4.03
2018-04-07T02:48:46.733Z,4.67
2018-04-07T02:52:49.258Z,3.60
2018-04-07T02:56:52.548Z,4.30
2018-04-07T03:00:55.857Z,4.60
2018-04-07T03:04:59.172Z,3.80
2018-04-07T03:09:01.702Z,4.83
2018-04-07T03:13:04.204Z,4.63
2018-04-07T03:17:06.751Z,5.23
2018-04-07T03:21:09.273Z,4.90
2018-04-07T03:25:11.800Z,5.40
2018-04-07T03:29:14.321Z,4.57
2018-04-07T03:33:16.830Z,5.43
2018-04-07T03:37:19.361Z,5.30
2018-04-07T03:41:21.880Z,4.73
2018-04-07T03:45:24.406Z,5.27
2018-04-07T03:49:27.703Z,5.77
2018-04-07T03:53:30.969Z,5.23
2018-04-07T03:57:33.500Z,5.40
2018-04-07T04:01:36.816Z,5.33
2018-04-07T04:05:39.345Z,5.30
2018-04-07T04:09:41.896Z,5.00
2018-04-07T04:13:44.401Z,4.93
2018-04-07T04:17:46.922Z,5.17
2018-04-07T04:21:49.457Z,5.30
2018-04-07T04:25:51.993Z,5.07
2018-04-07T04:29:54.522Z,4.90
2018-04-07T04:33:57.025Z,4.50
2018-04-07T04:37:59.550Z,4.70
2018-04-07T04:42:02.074Z,5.13
2018-04-07T04:46:04.608Z,5.50
2018-04-07T04:50:07.147Z,5.47
2018-04-07T04:54:09.661Z,5.10
2018-04-07T04:58:12.188Z,5.07
2018-04-07T05:02:15.478Z,5.67
2018-04-07T05:06:18.774Z,5.40
2018-04-07T05:10:21.581Z,5.20
2018-04-07T05:14:24.957Z,4.87
2018-04-07T05:18:27.485Z,5.50
2018-04-07T05:22:30.026Z,4.87
2018-04-07T05:26:32.561Z,5.13
2018-04-07T05:30:35.084Z,5.63
2018-04-07T05:34:37.598Z,5.57
2018-04-07T05:38:40.919Z,5.50
2018-04-07T05:42:44.212Z,5.13
2018-04-07T05:46:46.774Z,5.17
2018-04-07T05:50:49.302Z,5.60
2018-04-07T05:54:51.820Z,5.43
2018-04-07T05:58:54.356Z,9.57
2018-04-07T06:02:56.878Z,5.57
2018-04-07T06:06:59.414Z,4.90
2018-04-07T06:11:02.710Z,5.20
2018-04-07T06:15:05.249Z,5.13
2018-04-07T06:19:07.771Z,5.07
2018-04-07T06:23:10.324Z,5.80
2018-04-07T06:27:12.891Z,5.10
2018-04-07T06:31:15.437Z,5.43
2018-04-07T06:35:18.720Z,5.17
2018-04-07T06:39:21.225Z,5.33
2018-04-07T06:43:24.522Z,5.40
2018-04-07T06:47:27.046Z,5.50
2018-04-07T06:51:29.583Z,5.30
2018-04-07T06:55:32.114Z,5.93
2018-04-07T06:59:34.618Z,5.33
2018-04-07T07:03:37.152Z,5.53
2018-04-07T07:07:40.445Z,6.00
2018-04-07T07:11:42.974Z,5.90
2018-04-07T07:15:45.507Z,5.33
2018-04-07T07:19:48.805Z,5.20
2018-04-07T07:23:51.329Z,5.23
2018-04-07T07:27:53.853Z,5.60
2018-04-07T07:31:57.170Z,5.43
2018-04-07T07:35:59.697Z,4.87
2018-04-07T07:40:02.201Z,5.10
2018-04-07T07:44:04.731Z,5.43
2018-04-07T07:48:07.267Z,5.63
2018-04-07T07:52:09.802Z,5.63
2018-04-07T07:56:12.337Z,4.87
2018-04-07T08:00:14.855Z,5.43
2018-04-07T08:04:17.376Z,6.07
2018-04-07T08:08:19.914Z,5.60
2018-04-07T08:12:22.454Z,5.60
2018-04-07T08:16:25.765Z,5.63
2018-04-07T08:20:29.932Z,5.37
2018-04-07T08:24:34.128Z,5.37
2018-04-07T08:28:38.312Z,5.53
2018-04-07T08:32:42.483Z,5.77
2018-04-07T08:36:46.664Z,5.60
2018-04-07T08:40:50.847Z,5.93
2018-04-07T08:44:55.005Z,5.60
2018-04-07T08:48:59.182Z,6.50
2018-04-07T08:53:03.373Z,5.60
2018-04-07T08:57:07.537Z,5.47
2018-04-07T09:01:11.711Z,5.77
2018-04-07T09:05:15.868Z,6.10
2018-04-07T09:09:20.046Z,5.70
2018-04-07T09:13:24.221Z,6.33
2018-04-07T09:17:28.392Z,5.93
2018-04-07T09:21:32.568Z,6.00
2018-04-07T09:25:36.741Z,6.37
2018-04-07T09:29:40.922Z,5.73
2018-04-07T09:33:45.116Z,6.10
2018-04-07T09:37:49.329Z,6.57
2018-04-07T09:41:53.508Z,6.17
2018-04-07T09:45:57.677Z,6.50
2018-04-07T09:50:01.852Z,5.97
2018-04-07T09:54:06.033Z,6.20
2018-04-07T09:58:10.224Z,6.40
2018-04-07T10:02:19.340Z,6.17
2018-04-07T10:06:23.517Z,6.50
2018-04-07T10:10:27.686Z,6.40
2018-04-07T10:14:31.865Z,5.83
2018-04-07T10:18:36.039Z,6.77
2018-04-07T10:22:40.233Z,6.70
2018-04-07T10:26:44.417Z,6.17
2018-04-07T10:30:48.567Z,6.57
2018-04-07T10:34:52.774Z,6.33
2018-04-07T10:38:56.957Z,7.07
2018-04-07T10:43:01.132Z,6.80
2018-04-07T10:47:05.310Z,7.37
2018-04-07T10:51:09.456Z,7.20
2018-04-07T10:55:13.640Z,7.20
2018-04-07T10:59:17.856Z,6.80
2018-04-07T11:03:22.033Z,7.00
2018-04-07T11:07:27.108Z,6.80
2018-04-07T11:11:31.277Z,6.93
2018-04-07T11:15:35.460Z,7.33
2018-04-07T11:19:39.642Z,6.87
2018-04-07T11:23:43.824Z,7.33
2018-04-07T11:27:48.022Z,7.20
2018-04-07T11:31:52.207Z,7.07
2018-04-07T11:35:56.370Z,6.93
2018-04-07T11:40:00.553Z,7.40
2018-04-07T11:44:04.748Z,6.30
2018-04-07T11:48:08.930Z,6.80
2018-04-07T11:52:13.121Z,6.97
2018-04-07T11:56:17.293Z,6.57
2018-04-07T12:00:21.472Z,6.57
2018-04-07T12:04:25.655Z,6.90
2018-04-07T12:08:29.828Z,6.67
2018-04-07T12:12:34.017Z,7.13
2018-04-07T12:16:38.185Z,6.77
2018-04-07T12:20:42.373Z,6.97
2018-04-07T12:24:46.552Z,6.37
2018-04-07T12:28:50.735Z,6.63
2018-04-07T12:32:54.938Z,7.20
2018-04-07T12:36:59.110Z,7.47
2018-04-07T12:41:03.297Z,6.80
2018-04-07T12:45:07.481Z,7.30
2018-04-07T12:49:11.701Z,7.17
2018-04-07T12:53:15.888Z,6.83
2018-04-07T12:57:20.080Z,6.57
2018-04-07T13:01:24.243Z,6.30
2018-04-07T13:05:28.440Z,6.97
2018-04-07T13:09:32.633Z,6.93
2018-04-07T13:13:36.816Z,6.87
2018-04-07T13:17:41.007Z,6.53
2018-04-07T13:21:45.177Z,6.67
2018-04-07T13:25:49.369Z,7.13
2018-04-07T13:29:53.549Z,6.67
2018-04-07T13:33:57.751Z,6.57
2018-04-07T13:38:01.941Z,6.57
2018-04-07T13:42:06.106Z,6.57
2018-04-07T13:46:10.293Z,6.63
2018-04-07T13:50:14.917Z,6.60
2018-04-07T13:54:19.097Z,5.57
2018-04-07T13:58:23.277Z,6.40
2018-04-07T14:02:27.459Z,6.03
2018-04-07T14:06:31.637Z,6.20
2018-04-07T14:10:35.804Z,5.87
2018-04-07T14:14:39.976Z,6.60
2018-04-07T14:18:44.157Z,6.10
2018-04-07T14:22:46.680Z,6.83
2018-04-07T14:26:49.190Z,6.13
2018-04-07T14:30:51.721Z,6.90
2018-04-07T14:34:56.153Z,6.17
2018-04-07T14:39:00.796Z,5.57
2018-04-07T14:43:03.347Z,6.10
2018-04-07T14:47:05.889Z,5.80
2018-04-07T14:51:09.223Z,5.97
2018-04-07T14:55:11.778Z,6.40
2018-04-07T14:59:14.349Z,6.13
2018-04-07T15:03:16.903Z,5.57
2018-04-07T15:07:19.603Z,6.00
2018-04-07T15:11:23.355Z,5.33
2018-04-07T15:15:25.896Z,5.30
2018-04-07T15:19:28.436Z,6.40
2018-04-07T15:23:30.973Z,6.60
2018-04-07T15:27:34.256Z,6.60
2018-04-07T15:31:36.811Z,6.50
2018-04-07T15:35:39.346Z,6.47
2018-04-07T15:39:42.653Z,6.00
2018-04-07T15:43:45.950Z,6.23
2018-04-07T15:47:49.233Z,5.77
2018-04-07T15:51:51.766Z,5.80
2018-04-07T15:55:54.312Z,5.33
2018-04-07T15:59:57.604Z,6.57
2018-04-07T16:04:00.838Z,6.27
2018-04-07T16:08:04.201Z,6.03
2018-04-07T16:12:06.710Z,5.63
2018-04-07T16:16:09.245Z,5.33
2018-04-07T16:20:11.770Z,5.77
2018-04-07T16:24:14.297Z,6.57
2018-04-07T16:28:16.816Z,5.53
2018-04-07T16:32:19.352Z,5.63
2018-04-07T16:36:21.888Z,5.63
2018-04-07T16:40:24.412Z,5.90
2018-04-07T16:44:27.715Z,6.50
2018-04-07T16:48:31.015Z,5.67
2018-04-07T16:52:34.318Z,6.77
2018-04-07T16:56:37.628Z,5.77
2018-04-07T17:00:40.916Z,6.17
2018-04-07T17:04:43.438Z,6.07
2018-04-07T17:08:45.970Z,6.53
2018-04-07T17:12:48.517Z,6.40
2018-04-07T17:16:51.044Z,6.17
2018-04-07T17:20:53.576Z,6.17
2018-04-07T17:24:56.109Z,5.87
2018-04-07T17:28:58.637Z,5.77
2018-04-07T17:33:01.150Z,6.47
2018-04-07T17:37:03.688Z,6.30
2018-04-07T17:41:06.981Z,5.83
2018-04-07T17:45:10.278Z,5.90
2018-04-07T17:49:13.573Z,6.93
2018-04-07T17:53:16.086Z,7.03
2018-04-07T17:57:19.381Z,6.77
2018-04-07T18:01:22.678Z,8.00
2018-04-07T18:05:25.974Z,8.47
2018-04-07T18:09:28.513Z,8.03
2018-04-07T18:13:31.024Z,7.40
2018-04-07T18:17:33.562Z,7.93
2018-04-07T18:21:36.092Z,7.80
2018-04-07T18:25:38.620Z,8.20
2018-04-07T18:29:41.153Z,8.00
2018-04-07T18:33:43.664Z,7.43
2018-04-07T18:37:46.202Z,7.60
2018-04-07T18:41:48.736Z,7.43
2018-04-07T18:45:52.024Z,7.40
2018-04-07T18:49:56.285Z,7.93
2018-04-07T18:53:58.809Z,8.10
2018-04-07T18:58:01.344Z,8.00
2018-04-07T19:02:04.634Z,7.80
2018-04-07T19:06:07.158Z,7.73
2018-04-07T19:10:09.700Z,7.77
2018-04-07T19:14:12.222Z,7.77
2018-04-07T19:18:14.750Z,7.73
2018-04-07T19:22:17.283Z,8.13
2018-04-07T19:26:19.821Z,7.97
2018-04-07T19:30:22.360Z,7.30
2018-04-07T19:34:24.890Z,7.83
2018-04-07T19:38:27.407Z,8.57
2018-04-07T19:42:30.696Z,7.87
2018-04-07T19:46:34.004Z,8.70
2018-04-07T19:50:37.301Z,8.33
2018-04-07T19:54:39.849Z,8.20
2018-04-07T19:58:42.356Z,7.57
2018-04-07T20:02:44.902Z,8.43
2018-04-07T20:06:47.446Z,8.03
2018-04-07T20:10:50.737Z,8.73
2018-04-07T20:14:53.266Z,8.00
2018-04-07T20:18:55.781Z,9.30
2018-04-07T20:22:58.311Z,9.43
2018-04-07T20:27:01.609Z,8.90
2018-04-07T20:31:04.901Z,9.57
2018-04-07T20:35:07.438Z,9.43
2018-04-07T20:39:09.945Z,9.37
2018-04-07T20:43:13.957Z,9.53
2018-04-07T20:47:16.484Z,9.20
2018-04-07T20:51:19.786Z,9.63
2018-04-07T20:55:23.228Z,10.40
2018-04-07T20:59:25.782Z,9.23
2018-04-07T21:03:29.092Z,9.03
2018-04-07T21:07:32.390Z,9.67
2018-04-07T21:11:35.693Z,8.80
2018-04-07T21:15:38.994Z,9.40
2018-04-07T21:19:41.512Z,9.40
2018-04-07T21:23:44.057Z,9.70
2018-04-07T21:27:47.357Z,9.93
2018-04-07T21:31:50.661Z,9.90
2018-04-07T21:35:53.204Z,9.37
2018-04-07T21:39:55.745Z,10.07
2018-04-07T21:43:59.161Z,9.60
2018-04-07T21:48:01.734Z,9.87
2018-04-07T21:52:05.028Z,8.87
2018-04-07T21:56:08.339Z,9.37
2018-04-07T22:00:11.632Z,9.10
2018-04-07T22:04:14.147Z,9.07
2018-04-07T22:08:16.677Z,9.70
2018-04-07T22:12:19.978Z,10.27
2018-04-07T22:16:22.521Z,10.07
2018-04-07T22:20:25.057Z,9.20
2018-04-07T22:24:27.573Z,10.00
2018-04-07T22:28:30.105Z,8.50
2018-04-07T22:32:32.640Z,8.63
2018-04-07T22:36:35.169Z,9.20
2018-04-07T22:40:37.713Z,10.70
2018-04-07T22:44:40.238Z,10.50
2018-04-07T22:48:42.785Z,10.20
2018-04-07T22:52:45.322Z,10.23
2018-04-07T22:56:47.862Z,9.60
2018-04-07T23:00:50.394Z,10.63
2018-04-07T23:04:52.939Z,9.07
2018-04-07T23:08:55.486Z,10.27
2018-04-07T23:12:58.794Z,10.40
2018-04-07T23:17:02.099Z,10.47
2018-04-07T23:21:05.398Z,9.77
2018-04-07T23:25:08.681Z,9.93
2018-04-07T23:29:11.226Z,10.10
2018-04-07T23:33:13.765Z,9.93
2018-04-07T23:37:16.301Z,9.67
2018-04-07T23:41:18.834Z,9.17
2018-04-07T23:45:21.377Z,9.80
2018-04-07T23:49:23.928Z,9.93
2018-04-07T23:53:26.465Z,10.20
2018-04-07T23:57:29.033Z,10.53
